Time;durP1;ratioP1;P1;durP2;ratioP2;P2;SDS_P1;SDS_P2;PMS_P1;PMS_P2;Temp;Humidity;BMP_temperature;BMP_pressure;BME280_temperature;BME280_humidity;BME280_pressure;Samples;Min_cycle;Max_cycle;Signal;HPM_P1;HPM_P2
2023/01/28 00:00:29;;;;;;;3.40;3.10;;;;;;;0.06;86.25;147342.41;5072100;28;20020;-68
2023/01/28 00:02:54;;;;;;;4.13;3.72;;;;;;;0.01;85.06;147330.97;5068474;28;20033;-67
2023/01/28 00:05:22;;;;;;;3.75;3.35;;;;;;;-0.06;85.53;147313.16;5082749;28;20028;-67
2023/01/28 00:07:48;;;;;;;3.70;3.40;;;;;;;0.10;85.43;147353.88;5045620;28;20025;-68
2023/01/28 00:10:14;;;;;;;3.40;3.10;;;;;;;0.06;85.35;147343.69;5061355;28;20140;-68
2023/01/28 00:12:40;;;;;;;3.30;3.00;;;;;;;0.05;85.48;147339.88;5053701;28;20324;-67
2023/01/28 00:15:07;;;;;;;3.67;3.15;;;;;;;0.10;84.68;147352.56;5069409;28;20025;-67
2023/01/28 00:17:33;;;;;;;3.85;3.20;;;;;;;0.02;84.98;147332.28;5069220;28;20362;-69
2023/01/28 00:19:58;;;;;;;3.35;3.00;;;;;;;0.09;84.78;147351.31;5045637;28;20052;-68
2023/01/28 00:22:24;;;;;;;3.25;2.95;;;;;;;0.11;84.38;147355.13;5080540;28;20032;-66
2023/01/28 00:24:49;;;;;;;3.40;2.67;;;;;;;0.06;84.00;147342.41;5065021;28;20029;-67
2023/01/28 00:27:15;;;;;;;2.92;2.65;;;;;;;0.00;83.82;147328.47;5074917;28;20037;-67
2023/01/28 00:29:40;;;;;;;2.85;2.53;;;;;;;0.07;83.30;147344.97;5065706;28;20036;-67
2023/01/28 00:32:06;;;;;;;2.50;2.25;;;;;;;0.12;83.61;147358.94;5063819;28;20136;-66
2023/01/28 00:34:32;;;;;;;3.45;2.80;;;;;;;0.00;84.24;147328.47;5081091;28;20321;-67
2023/01/28 00:36:57;;;;;;;2.80;2.53;;;;;;;0.11;83.81;147356.38;5068760;28;20213;-66
2023/01/28 00:39:26;;;;;;;3.10;2.80;;;;;;;-0.14;82.74;147292.81;5071355;28;20205;-66
2023/01/28 00:41:53;;;;;;;2.65;2.38;;;;;;;-0.01;83.06;147327.16;5075909;28;20063;-67
2023/01/28 00:44:19;;;;;;;3.28;2.90;;;;;;;-0.13;83.35;147296.63;5075784;28;20213;-67
2023/01/28 00:46:45;;;;;;;2.80;2.60;;;;;;;-0.15;84.23;147291.56;5066855;28;20223;-67
2023/01/28 00:49:11;;;;;;;3.10;2.83;;;;;;;-0.14;83.57;147292.81;5081783;28;20036;-67
2023/01/28 00:51:36;;;;;;;3.15;2.80;;;;;;;-0.11;82.90;147301.75;5050013;28;20021;-67
2023/01/28 00:54:02;;;;;;;2.90;2.67;;;;;;;-0.07;83.62;147310.63;5052677;28;20032;-67
2023/01/28 00:56:28;;;;;;;2.83;2.63;;;;;;;-0.10;82.97;147304.31;5067443;28;20016;-68
2023/01/28 00:58:54;;;;;;;3.35;3.05;;;;;;;-0.16;83.15;147287.75;5086540;28;20094;-66
2023/01/28 01:01:26;;;;;;;3.35;3.05;;;;;;;-0.09;82.48;147306.81;5069505;28;20313;-68
2023/01/28 01:04:01;;;;;;;;;;;;;;;-0.04;83.58;147318.28;5067082;28;20048;-67
2023/01/28 01:06:34;;;;;;;3.58;3.17;;;;;;;-0.08;83.35;147308.09;5075072;28;19931;-68
2023/01/28 01:09:00;;;;;;;3.42;3.13;;;;;;;-0.19;83.15;147282.66;5081173;28;20029;-68
2023/01/28 01:11:26;;;;;;;3.58;3.28;;;;;;;-0.09;83.11;147305.56;5065956;28;20372;-67
2023/01/28 01:13:55;;;;;;;3.80;3.50;;;;;;;-0.09;82.73;147306.81;5066289;28;20037;-67
2023/01/28 01:16:23;;;;;;;3.63;3.33;;;;;;;-0.01;83.22;147325.91;5048101;28;20025;-67
2023/01/28 01:18:51;;;;;;;3.75;3.42;;;;;;;-0.04;82.27;147319.53;5078227;28;20032;-67
2023/01/28 01:21:19;;;;;;;4.07;3.67;;;;;;;0.02;82.57;147332.28;5078243;28;20090;-68
2023/01/28 01:23:45;;;;;;;4.10;3.70;;;;;;;0.02;82.72;147333.53;5065782;28;20025;-66
2023/01/28 01:26:11;;;;;;;6.13;4.13;;;;;;;-0.10;82.41;147304.31;5066103;28;20331;-68
2023/01/28 01:28:37;;;;;;;4.55;4.00;;;;;;;0.01;82.58;147329.72;5065994;28;20035;-66
2023/01/28 01:31:10;;;;;;;4.15;3.55;;;;;;;0.01;83.17;147330.97;5070395;28;20045;-65
2023/01/28 01:33:35;;;;;;;4.30;3.88;;;;;;;0.01;82.21;147330.97;5076023;28;20024;-67
2023/01/28 01:36:01;;;;;;;5.05;4.20;;;;;;;-0.03;82.55;147322.09;5080155;28;20190;-66
2023/01/28 01:38:27;;;;;;;4.50;4.10;;;;;;;-0.01;82.51;147327.16;5066181;28;20032;-68
2023/01/28 01:40:58;;;;;;;4.60;4.00;;;;;;;0.08;82.52;147348.75;5065700;28;20064;-66
2023/01/28 01:43:25;;;;;;;4.90;4.40;;;;;;;0.04;82.60;147338.59;5065256;28;20072;-68
2023/01/28 01:45:59;;;;;;;4.88;4.38;;;;;;;0.01;82.05;147330.97;5064649;28;20285;-68
2023/01/28 01:48:31;;;;;;;5.88;4.60;;;;;;;-0.03;82.33;147320.78;5065825;28;20040;-67
2023/01/28 01:51:02;;;;;;;;;;;;;;;-0.03;82.20;147322.09;5070931;28;20028;-67
2023/01/28 01:53:30;;;;;;;5.47;4.82;;;;;;;-0.16;82.40;147289.00;5084650;28;19908;-68
2023/01/28 01:56:01;;;;;;;6.85;5.55;;;;;;;-0.08;82.87;147308.09;5065718;28;20356;-67
2023/01/28 01:58:32;;;;;;;5.65;4.45;;;;;;;-0.12;82.98;147299.19;5047828;28;20052;-67
2023/01/28 02:00:58;;;;;;;6.75;4.20;;;;;;;-0.14;82.45;147292.81;5065222;28;20032;-66
2023/01/28 02:03:59;;;;;;;5.43;4.85;;;;;;;-0.28;83.57;147259.78;5065119;28;20017;-68
2023/01/28 02:06:27;;;;;;;6.10;4.63;;;;;;;-0.40;83.02;147230.56;5049555;28;20043;-68
2023/01/28 02:08:54;;;;;;;5.95;5.35;;;;;;;-0.31;83.93;147252.19;5047552;28;20704;-67
2023/01/28 02:11:21;;;;;;;5.55;5.03;;;;;;;-0.24;84.08;147268.72;5065060;28;20418;-67
2023/01/28 02:13:50;;;;;;;5.90;5.30;;;;;;;-0.38;82.96;147234.38;5064981;28;20047;-68
2023/01/28 02:16:16;;;;;;;9.00;5.75;;;;;;;-0.25;83.71;147266.16;5060620;28;20046;-68
2023/01/28 02:18:42;;;;;;;6.13;5.45;;;;;;;-0.16;83.22;147287.75;5059742;28;20036;-66
2023/01/28 02:21:19;;;;;;;5.70;5.15;;;;;;;-0.13;83.46;147295.38;5065323;28;20029;-66
2023/01/28 02:24:00;;;;;;;6.70;5.50;;;;;;;-0.15;83.67;147290.31;5084152;28;20045;-68
2023/01/28 02:26:56;;;;;;;6.45;5.85;;;;;;;-0.09;83.05;147305.56;5065118;28;20229;-67
2023/01/28 02:29:42;;;;;;;6.88;6.18;;;;;;;-0.25;82.90;147267.41;5064703;28;20032;-66
2023/01/28 02:32:13;;;;;;;7.57;6.53;;;;;;;-0.36;83.07;147239.44;5063141;28;20027;-67
2023/01/28 02:34:58;;;;;;;6.35;5.75;;;;;;;-0.37;83.14;147236.88;5082784;28;20334;-68
2023/01/28 02:37:36;;;;;;;6.80;5.70;;;;;;;-0.20;82.81;147280.13;5068127;28;20096;-67
2023/01/28 02:40:11;;;;;;;8.23;6.82;;;;;;;-0.37;83.18;147236.88;5064278;28;20036;-69
2023/01/28 02:42:40;;;;;;;8.48;6.22;;;;;;;-0.24;83.30;147268.72;5064098;28;20084;-66
2023/01/28 02:45:20;;;;;;;7.22;6.53;;;;;;;-0.20;83.98;147278.84;5082336;28;20028;-67
2023/01/28 02:47:57;;;;;;;6.78;5.80;;;;;;;-0.16;83.28;147289.00;5081342;28;20062;-67
2023/01/28 02:50:30;;;;;;;7.35;6.38;;;;;;;-0.33;82.48;147247.06;5064393;28;20040;-69
2023/01/28 02:53:45;;;;;;;6.70;5.95;;;;;;;-0.22;83.05;147275.03;5044093;28;20037;-67
2023/01/28 02:56:13;;;;;;;6.78;6.07;;;;;;;-0.22;83.03;147273.78;5043939;28;20037;-67
2023/01/28 02:58:47;;;;;;;8.65;6.07;;;;;;;-0.30;83.29;147253.44;5062338;28;20029;-67
2023/01/28 03:01:15;;;;;;;7.22;5.43;;;;;;;-0.36;82.21;147239.44;5063549;28;20233;-69
2023/01/28 03:03:49;;;;;;;7.13;5.72;;;;;;;-0.35;83.27;147243.25;5062966;28;20025;-67
2023/01/28 03:06:21;;;;;;;6.70;5.75;;;;;;;-0.35;82.65;147243.25;5069991;28;20039;-67
2023/01/28 03:36:54;;;;;;;5.03;4.13;;;;;;;-0.57;80.14;147188.63;5062888;28;20040;-67
2023/01/28 03:39:26;;;;;;;5.15;4.65;;;;;;;-0.59;79.74;147182.28;5051461;28;20052;-67
2023/01/28 03:42:03;;;;;;;5.15;4.50;;;;;;;-0.71;79.90;147153.06;5080163;28;20076;-68
2023/01/28 03:47:13;;;;;;;4.32;3.90;;;;;;;-0.58;79.98;147186.09;5063401;28;20041;-69
2023/01/28 03:49:42;;;;;;;5.00;4.40;;;;;;;-0.72;79.56;147150.50;5063004;28;20253;-68
2023/01/28 03:52:08;;;;;;;5.25;4.60;;;;;;;-0.94;78.93;147095.84;5062042;28;20221;-68
2023/01/28 03:54:34;;;;;;;5.95;4.28;;;;;;;-0.90;79.36;147107.31;5062994;28;20039;-69
2023/01/28 03:56:59;;;;;;;4.28;3.83;;;;;;;-0.99;79.32;147084.44;5065897;28;20052;-68
2023/01/28 03:59:25;;;;;;;4.75;4.25;;;;;;;-0.94;79.45;147097.16;5064983;28;20043;-67
2023/01/28 04:01:50;;;;;;;6.93;4.32;;;;;;;-1.29;80.54;147009.53;5063781;28;20225;-67
2023/01/28 04:04:23;;;;;;;4.93;4.30;;;;;;;-1.04;79.51;147071.75;5076949;28;20043;-68
2023/01/28 04:06:53;;;;;;;4.88;4.38;;;;;;;-1.24;80.29;147022.19;5071491;28;20037;-66
2023/01/28 04:09:22;;;;;;;5.93;4.88;;;;;;;-0.94;80.09;147097.16;5062057;28;20037;-67
2023/01/28 04:11:49;;;;;;;5.15;4.53;;;;;;;-0.86;79.89;147116.19;5062627;28;20025;-67
2023/01/28 04:14:16;;;;;;;6.25;4.57;;;;;;;-1.16;80.40;147041.28;5062969;28;20021;-68
2023/01/28 04:16:42;;;;;;;6.40;5.13;;;;;;;-1.19;80.48;147034.91;5079371;28;20024;-67
2023/01/28 04:19:08;;;;;;;5.28;4.60;;;;;;;-1.43;81.51;146976.47;5069555;28;20048;-68
2023/01/28 04:21:34;;;;;;;5.68;4.97;;;;;;;-1.19;81.15;147034.91;5062741;28;20356;-68
2023/01/28 04:24:00;;;;;;;5.68;4.93;;;;;;;-1.30;81.16;147008.22;5062256;28;20021;-67
2023/01/28 04:26:27;;;;;;;6.72;4.95;;;;;;;-1.15;80.56;147043.81;5062054;28;20045;-69
2023/01/28 04:28:52;;;;;;;5.25;4.75;;;;;;;-1.34;80.89;146998.09;5080925;28;20048;-69
2023/01/28 04:31:18;;;;;;;5.63;4.63;;;;;;;-1.26;80.59;147018.38;5068136;28;20193;-69
2023/01/28 04:33:43;;;;;;;6.03;5.00;;;;;;;-1.14;80.41;147047.63;5044703;28;20202;-69
2023/01/28 04:36:09;;;;;;;5.75;5.05;;;;;;;-1.02;79.85;147075.56;5062439;28;20239;-69
2023/01/28 04:38:34;;;;;;;6.28;4.70;;;;;;;-1.14;79.16;147046.31;5044655;28;20056;-68
2023/01/28 04:41:00;;;;;;;5.05;4.55;;;;;;;-1.02;79.86;147076.81;5062276;28;20057;-67
2023/01/28 04:43:25;;;;;;;7.43;5.75;;;;;;;-0.99;79.47;147083.19;5073728;28;20533;-69
2023/01/28 04:45:51;;;;;;;6.38;5.00;;;;;;;-1.13;79.70;147050.13;5062706;28;20298;-68
2023/01/28 04:48:17;;;;;;;6.93;4.82;;;;;;;-1.27;79.11;147014.56;5067670;28;20078;-66
2023/01/28 04:50:44;;;;;;;5.43;4.88;;;;;;;-1.20;79.76;147031.09;5081240;28;20031;-67
2023/01/28 04:53:10;;;;;;;6.35;4.72;;;;;;;-1.43;80.38;146975.22;5062333;28;20037;-68
2023/01/28 04:55:36;;;;;;;7.72;6.25;;;;;;;-1.60;80.66;146934.56;5077695;28;20076;-68
2023/01/28 04:58:02;;;;;;;6.25;5.22;;;;;;;-1.36;79.70;146993.00;5070341;28;20028;-67
2023/01/28 05:00:28;;;;;;;8.77;6.63;;;;;;;-1.32;79.80;147003.16;5044081;28;20037;-68
2023/01/28 05:02:53;;;;;;;7.43;6.20;;;;;;;-1.30;79.55;147008.22;5064324;28;20209;-67
2023/01/28 05:05:19;;;;;;;7.38;5.75;;;;;;;-1.27;79.72;147014.56;5064724;28;20111;-68
2023/01/28 05:07:55;;;;;;;7.18;6.07;;;;;;;-1.31;80.46;147005.72;5064036;28;20052;-67
2023/01/28 05:10:22;;;;;;;7.85;6.30;;;;;;;-1.53;80.30;146951.09;5060816;28;20202;-69
2023/01/28 05:12:48;;;;;;;8.30;6.57;;;;;;;-1.43;80.92;146975.22;5061674;28;20333;-67
2023/01/28 05:15:15;;;;;;;8.40;6.85;;;;;;;-1.44;79.93;146972.66;5061178;28;20095;-67
2023/01/28 05:17:42;;;;;;;7.40;6.43;;;;;;;-1.46;80.34;146968.88;5062015;28;20032;-66
2023/01/28 05:20:09;;;;;;;7.63;6.65;;;;;;;-1.56;80.53;146944.72;5062215;28;20323;-68
2023/01/28 05:22:34;;;;;;;9.80;7.32;;;;;;;-1.42;80.92;146979.03;5077433;28;20378;-67
2023/01/28 05:25:02;;;;;;;8.75;7.00;;;;;;;-1.34;80.65;146996.81;5070522;28;20028;-66
2023/01/28 05:27:29;;;;;;;10.27;7.18;;;;;;;-1.26;79.87;147018.38;5069767;28;20055;-66
2023/01/28 05:29:55;;;;;;;10.80;7.57;;;;;;;-1.15;80.24;147045.06;5075761;28;20079;-66
2023/01/28 05:32:20;;;;;;;9.45;8.15;;;;;;;-1.18;80.03;147036.16;5065993;28;20029;-67
2023/01/28 05:34:46;;;;;;;12.40;8.38;;;;;;;-1.42;79.88;146977.78;5082974;28;20047;-67
2023/01/28 05:37:11;;;;;;;11.20;8.45;;;;;;;-1.23;79.79;147026.03;5072390;28;20159;-67
2023/01/28 05:39:37;;;;;;;13.52;10.23;;;;;;;-1.63;80.67;146925.72;5073620;28;20033;-67
2023/01/28 05:42:03;;;;;;;14.43;9.82;;;;;;;-1.71;79.64;146906.69;5074016;28;20357;-67
2023/01/28 05:44:28;;;;;;;15.05;10.63;;;;;;;-1.72;80.09;146904.13;5072505;28;20128;-68
2023/01/28 05:46:54;;;;;;;16.85;10.73;;;;;;;-1.82;80.06;146880.00;5065619;28;20049;-67
2023/01/28 05:49:19;;;;;;;13.88;10.73;;;;;;;-1.81;80.49;146881.25;5060636;28;20167;-67
2023/01/28 05:51:47;;;;;;;16.10;11.02;;;;;;;-1.75;79.39;146896.53;5076222;28;20052;-66
2023/01/28 05:54:12;;;;;;;15.93;11.85;;;;;;;-1.76;78.91;146893.97;5051999;28;20309;-67
2023/01/28 05:56:39;;;;;;;15.38;11.18;;;;;;;-1.80;79.40;146883.81;5084096;28;20070;-67
2023/01/28 05:59:04;;;;;;;16.60;10.57;;;;;;;-1.79;79.57;146886.38;5065421;28;20025;-66
2023/01/28 06:01:30;;;;;;;15.68;10.32;;;;;;;-1.92;78.69;146854.63;5065127;28;20078;-67
2023/01/28 06:03:56;;;;;;;15.43;10.63;;;;;;;-1.93;79.58;146853.34;5065068;28;20035;-67
2023/01/28 06:06:21;;;;;;;14.48;11.10;;;;;;;-2.03;78.38;146826.72;5065305;28;20033;-66
2023/01/28 06:08:47;;;;;;;13.98;9.77;;;;;;;-2.18;79.05;146791.19;5065043;28;20045;-67
2023/01/28 06:11:13;;;;;;;15.98;11.13;;;;;;;-1.99;79.87;146836.88;5084557;28;20341;-66
2023/01/28 06:13:40;;;;;;;13.25;10.77;;;;;;;-1.97;79.09;146843.19;5068401;28;20092;-67
2023/01/28 06:16:06;;;;;;;15.50;11.48;;;;;;;-1.99;79.13;146838.13;5076549;28;20028;-67
2023/01/28 06:18:32;;;;;;;17.25;10.38;;;;;;;-2.07;78.54;146817.81;5077788;28;20052;-67
2023/01/28 06:20:58;;;;;;;13.70;9.57;;;;;;;-2.27;78.95;146769.63;5066842;28;20071;-67
2023/01/28 06:23:23;;;;;;;9.18;7.75;;;;;;;-2.41;79.17;146734.06;5084987;28;20309;-68
2023/01/28 06:25:53;;;;;;;11.05;8.60;;;;;;;-2.28;78.98;146767.06;5066977;28;20049;-66
2023/01/28 06:28:19;;;;;;;10.48;8.50;;;;;;;-2.23;78.03;146777.22;5078076;28;20040;-66
2023/01/28 06:30:50;;;;;;;11.85;8.65;;;;;;;-2.30;77.85;146761.97;5075629;28;20056;-66
2023/01/28 06:33:17;;;;;;;12.60;8.77;;;;;;;-2.23;77.77;146778.47;5064516;28;20096;-67
2023/01/28 06:35:43;;;;;;;12.35;8.48;;;;;;;-2.09;77.88;146814.00;5064201;28;20096;-68
2023/01/28 06:38:10;;;;;;;11.25;8.35;;;;;;;-2.03;77.52;146826.72;5064706;28;20032;-68
2023/01/28 06:40:35;;;;;;;10.32;8.30;;;;;;;-2.19;78.04;146788.63;5080068;28;20323;-65
2023/01/28 06:43:01;;;;;;;11.65;8.57;;;;;;;-2.24;77.72;146774.69;5073296;28;20021;-66
2023/01/28 06:45:27;;;;;;;14.45;9.85;;;;;;;-2.19;78.46;146787.38;5064319;28;20060;-66
2023/01/28 06:47:53;;;;;;;12.93;9.05;;;;;;;-2.42;78.10;146731.56;5064440;28;20029;-66
2023/01/28 06:50:18;;;;;;;11.73;9.15;;;;;;;-2.23;78.70;146778.47;5046596;28;20028;-68
2023/01/28 06:52:44;;;;;;;12.25;8.95;;;;;;;-2.17;78.86;146792.44;5063958;28;20095;-67
2023/01/28 06:55:10;;;;;;;14.38;9.40;;;;;;;-2.27;78.63;146769.63;5075863;28;20032;-66
2023/01/28 06:57:39;;;;;;;11.25;8.88;;;;;;;-2.29;78.38;146764.53;5075905;28;20040;-66
2023/01/28 07:00:10;;;;;;;12.95;9.77;;;;;;;-2.27;78.32;146769.63;5066389;28;20340;-67
2023/01/28 07:02:36;;;;;;;12.45;9.25;;;;;;;-2.38;78.68;146741.72;5065221;28;20034;-67
2023/01/28 07:05:03;;;;;;;13.48;10.13;;;;;;;-2.21;78.92;146782.28;5082831;28;20025;-67
2023/01/28 07:07:29;;;;;;;12.90;9.82;;;;;;;-1.97;78.16;146841.94;5051426;28;20123;-67
2023/01/28 07:09:54;;;;;;;12.57;10.35;;;;;;;-2.00;78.84;146834.31;5073777;28;20350;-68
2023/01/28 07:12:20;;;;;;;13.05;9.90;;;;;;;-1.76;78.19;146893.97;5058089;28;20037;-67
2023/01/28 07:14:45;;;;;;;11.55;9.02;;;;;;;-1.78;77.86;146888.88;5043521;28;20040;-67
2023/01/28 07:17:11;;;;;;;13.23;9.50;;;;;;;-1.78;77.32;146890.16;5083987;28;20024;-67
2023/01/28 07:19:36;;;;;;;11.93;9.45;;;;;;;-1.83;76.26;146877.47;5068270;28;20029;-67
2023/01/28 07:22:02;;;;;;;15.50;11.13;;;;;;;-2.05;77.15;146821.59;5073818;28;20024;-67
2023/01/28 07:24:28;;;;;;;12.48;9.30;;;;;;;-1.75;77.94;146896.53;5076822;28;20021;-67
2023/01/28 07:26:54;;;;;;;13.38;9.70;;;;;;;-1.88;77.46;146864.78;5062670;28;20051;-67
2023/01/28 07:29:20;;;;;;;14.38;9.48;;;;;;;-1.75;77.45;146896.53;5063050;28;20025;-67
2023/01/28 07:31:45;;;;;;;13.77;9.88;;;;;;;-1.76;77.60;146893.97;5063603;28;20036;-67
2023/01/28 07:34:11;;;;;;;13.82;9.23;;;;;;;-1.81;77.44;146881.25;5062935;28;20024;-67
2023/01/28 07:36:37;;;;;;;13.55;9.80;;;;;;;-1.75;75.97;146896.53;5044675;28;20301;-67
2023/01/28 07:39:03;;;;;;;12.95;9.70;;;;;;;-1.82;76.96;146878.75;5063359;28;20025;-67
2023/01/28 07:41:28;;;;;;;14.38;10.00;;;;;;;-1.75;77.28;146897.78;5062966;28;20096;-66
2023/01/28 07:43:54;;;;;;;14.18;9.30;;;;;;;-1.80;76.64;146883.81;5062987;28;20075;-66
2023/01/28 07:46:20;;;;;;;13.60;10.23;;;;;;;-1.70;76.56;146907.94;5063103;28;20088;-67
2023/01/28 07:48:46;;;;;;;15.85;10.07;;;;;;;-1.62;77.92;146929.50;5063368;28;20076;-66
2023/01/28 07:51:11;;;;;;;13.65;10.68;;;;;;;-1.52;76.85;146953.63;5066295;28;20016;-68
2023/01/28 07:53:38;;;;;;;12.82;10.05;;;;;;;-1.57;75.99;146940.94;5083294;28;20025;-67
2023/01/28 07:56:05;;;;;;;15.13;10.45;;;;;;;-1.57;76.62;146940.94;5064209;28;20248;-66
2023/01/28 07:58:33;;;;;;;12.93;10.40;;;;;;;-1.52;76.35;146953.63;5077165;28;20028;-68
2023/01/28 08:00:59;;;;;;;12.35;9.65;;;;;;;-1.37;76.69;146990.44;5073179;28;20284;-68
2023/01/28 08:03:26;;;;;;;13.68;10.05;;;;;;;-1.37;75.99;146990.44;5062430;28;20064;-69
2023/01/28 08:05:53;;;;;;;12.70;9.68;;;;;;;-1.31;76.52;147004.41;5062556;28;20029;-67
2023/01/28 08:08:20;;;;;;;13.13;10.23;;;;;;;-1.20;76.02;147031.09;5082914;28;20305;-66
2023/01/28 08:10:46;;;;;;;12.32;9.88;;;;;;;-1.12;76.45;147051.44;5065986;28;20072;-66
2023/01/28 08:13:12;;;;;;;13.95;10.32;;;;;;;-1.23;74.73;147024.75;5062323;28;20257;-67
2023/01/28 08:15:38;;;;;;;12.43;9.45;;;;;;;-1.22;75.12;147027.28;5062796;28;20305;-66
2023/01/28 08:18:05;;;;;;;16.20;11.20;;;;;;;-1.20;75.19;147032.34;5063055;28;20033;-68
2023/01/28 08:20:31;;;;;;;12.38;10.00;;;;;;;-1.19;75.99;147034.91;5062826;28;20237;-67
2023/01/28 08:23:14;;;;;;;14.13;10.48;;;;;;;-1.26;75.30;147018.38;5063267;28;20032;-67
2023/01/28 08:25:40;;;;;;;13.63;10.90;;;;;;;-1.12;76.09;147052.69;5062618;28;20044;-66
2023/01/28 08:28:06;;;;;;;13.65;10.70;;;;;;;-1.08;75.00;147061.59;5045432;28;20078;-67
2023/01/28 08:30:32;;;;;;;15.25;11.32;;;;;;;-1.09;74.48;147059.03;5062820;28;20025;-68
2023/01/28 08:32:58;;;;;;;14.85;10.85;;;;;;;-0.96;76.02;147092.06;5080760;28;20016;-68
2023/01/28 08:35:25;;;;;;;15.20;11.13;;;;;;;-0.95;74.63;147093.34;5062902;28;20309;-67
2023/01/28 08:37:52;;;;;;;14.23;9.70;;;;;;;-0.87;75.61;147113.63;5065575;28;20060;-66
2023/01/28 08:40:18;;;;;;;14.77;9.85;;;;;;;-0.85;75.34;147118.75;5045125;28;20025;-67
2023/01/28 08:42:51;;;;;;;13.43;9.57;;;;;;;-0.93;74.96;147098.41;5069289;28;20025;-67
2023/01/28 08:45:17;;;;;;;12.15;9.55;;;;;;;-1.02;75.19;147076.81;5062977;28;20225;-67
2023/01/28 08:47:51;;;;;;;13.82;9.38;;;;;;;-0.98;75.33;147087.00;5062575;28;20041;-67
2023/01/28 08:50:18;;;;;;;13.05;9.57;;;;;;;-0.87;74.72;147113.63;5062636;28;20036;-66
2023/01/28 08:52:48;;;;;;;12.63;9.63;;;;;;;-0.91;74.29;147104.78;5077150;28;20092;-67
2023/01/28 08:55:15;;;;;;;13.80;9.27;;;;;;;-0.86;75.28;147116.19;5067734;28;20055;-68
2023/01/28 08:57:40;;;;;;;10.45;8.55;;;;;;;-0.87;74.58;147114.94;5062248;28;20037;-66
2023/01/28 09:00:09;;;;;;;12.38;10.02;;;;;;;-0.89;75.25;147108.56;5044067;28;20029;-69
2023/01/28 09:02:36;;;;;;;12.60;9.43;;;;;;;-0.76;75.23;147140.34;5061573;28;20074;-67
2023/01/28 09:05:02;;;;;;;15.75;10.98;;;;;;;-0.77;74.88;147137.78;5069495;28;20052;-67
2023/01/28 09:07:28;;;;;;;11.68;9.38;;;;;;;-1.03;74.21;147074.28;5065264;28;20078;-68
2023/01/28 09:09:53;;;;;;;11.13;8.90;;;;;;;-0.91;74.51;147104.78;5066196;28;20033;-67
2023/01/28 09:12:19;;;;;;;13.45;9.70;;;;;;;-0.81;74.50;147128.91;5065557;28;20048;-68
2023/01/28 09:14:44;;;;;;;11.73;9.02;;;;;;;-1.01;74.02;147078.06;5066120;28;20037;-67
2023/01/28 09:17:10;;;;;;;10.85;8.55;;;;;;;-1.10;73.79;147056.50;5073994;28;20088;-68
2023/01/28 09:19:35;;;;;;;11.93;9.63;;;;;;;-1.11;75.44;147053.94;5080278;28;20040;-67
2023/01/28 09:22:04;;;;;;;13.20;9.50;;;;;;;-1.10;75.00;147056.50;5085730;28;20029;-66
2023/01/28 09:24:30;;;;;;;12.38;10.15;;;;;;;-0.99;74.24;147083.19;5085678;28;20040;-67
2023/01/28 09:26:55;;;;;;;11.07;9.18;;;;;;;-0.90;76.52;147106.03;5085457;28;20033;-68
2023/01/28 09:29:21;;;;;;;14.05;10.23;;;;;;;-0.91;74.26;147104.78;5065518;28;20352;-67
2023/01/28 09:31:46;;;;;;;12.52;9.20;;;;;;;-0.89;74.55;147109.84;5063966;28;20029;-67
2023/01/28 09:34:12;;;;;;;12.88;9.10;;;;;;;-0.76;74.92;147140.34;5066113;28;20028;-68
2023/01/28 09:36:38;;;;;;;12.70;10.00;;;;;;;-0.83;74.34;147123.81;5071957;28;20079;-68
2023/01/28 09:39:03;;;;;;;12.50;9.77;;;;;;;-0.97;74.65;147089.53;5084569;28;20032;-66
2023/01/28 09:41:58;;;;;;;13.15;9.50;;;;;;;-0.94;74.36;147095.84;5065624;28;20033;-67
2023/01/28 09:44:38;;;;;;;11.48;9.18;;;;;;;-0.89;74.05;147109.84;5046066;28;20047;-67
2023/01/28 09:47:17;;;;;;;14.07;9.40;;;;;;;-0.97;74.53;147088.25;5085666;28;20040;-66
2023/01/28 09:49:47;;;;;;;10.55;8.73;;;;;;;-1.11;73.70;147053.94;5070155;28;20033;-70
2023/01/28 09:52:17;;;;;;;12.10;9.30;;;;;;;-0.95;73.57;147094.59;5065170;28;20045;-66
2023/01/28 09:54:55;;;;;;;13.45;9.77;;;;;;;-0.90;74.03;147107.31;5064569;28;20021;-67
2023/01/28 09:57:41;;;;;;;12.32;10.13;;;;;;;-1.27;75.10;147015.88;5065220;28;20024;-67
2023/01/28 10:00:33;;;;;;;14.68;9.68;;;;;;;-1.24;75.38;147023.50;5065208;28;20035;-67
2023/01/28 10:02:58;;;;;;;12.43;9.68;;;;;;;-1.22;75.25;147028.56;5065166;28;20063;-67
2023/01/28 10:05:27;;;;;;;13.70;9.38;;;;;;;-1.14;75.64;147046.31;5065234;28;20029;-67
2023/01/28 10:08:00;;;;;;;13.85;10.23;;;;;;;-1.15;75.41;147043.81;5081008;28;20031;-66
2023/01/28 10:10:39;;;;;;;11.85;9.80;;;;;;;-0.96;75.00;147090.78;5055303;28;20059;-69
2023/01/28 10:13:17;;;;;;;12.88;8.80;;;;;;;-0.85;75.67;147118.75;5036456;28;20024;-68
2023/01/28 10:16:09;;;;;;;13.07;9.73;;;;;;;-1.02;74.43;147075.56;5071431;28;20114;-68
2023/01/28 10:18:41;;;;;;;13.48;9.38;;;;;;;-1.17;74.85;147038.72;5077667;28;20041;-68
2023/01/28 10:21:18;;;;;;;13.05;10.05;;;;;;;-1.10;76.00;147056.50;5066210;28;20035;-67
2023/01/28 10:24:02;;;;;;;13.60;10.68;;;;;;;-1.44;75.28;146972.66;5084998;28;20025;-69
2023/01/28 10:26:37;;;;;;;12.95;9.88;;;;;;;-1.24;75.81;147023.50;5020220;28;20233;-68
2023/01/28 10:29:20;;;;;;;15.50;10.95;;;;;;;-1.14;75.24;147047.63;5062317;28;20044;-67
2023/01/28 10:31:55;;;;;;;12.75;9.48;;;;;;;-1.13;74.78;147050.13;5063261;28;20041;-67
2023/01/28 10:34:22;;;;;;;14.63;9.98;;;;;;;-0.85;75.59;147118.75;5076438;28;20032;-69
2023/01/28 10:36:49;;;;;;;11.93;9.13;;;;;;;-0.72;75.31;147151.75;5077996;28;20036;-69
2023/01/28 10:39:21;;;;;;;12.88;9.13;;;;;;;-0.64;74.61;147169.56;5064572;28;20043;-69
2023/01/28 10:41:47;;;;;;;13.63;9.95;;;;;;;-0.93;73.72;147099.66;5065037;28;20092;-68
2023/01/28 10:44:20;;;;;;;13.15;10.13;;;;;;;-1.22;74.81;147028.56;5072204;28;20029;-69
2023/01/28 10:46:49;;;;;;;13.65;9.82;;;;;;;-1.10;75.13;147056.50;5046783;28;20076;-67
2023/01/28 10:49:21;;;;;;;13.18;10.73;;;;;;;-0.97;74.84;147088.25;5074840;28;20047;-68
2023/01/28 10:51:47;;;;;;;11.80;9.35;;;;;;;-0.81;75.30;147127.63;5077750;28;20025;-67
2023/01/28 10:54:18;;;;;;;12.02;9.60;;;;;;;-0.85;74.27;147117.50;5066116;28;20087;-68
2023/01/28 10:56:44;;;;;;;12.18;8.73;;;;;;;-0.82;74.79;147125.09;5084049;28;20033;-67
2023/01/28 10:59:26;;;;;;;11.35;8.70;;;;;;;-0.78;74.05;147135.28;5066379;28;20040;-69
2023/01/28 11:01:55;;;;;;;12.57;9.23;;;;;;;-0.74;74.06;147145.41;5079344;28;20028;-68
2023/01/28 11:04:29;;;;;;;12.13;9.90;;;;;;;-0.66;74.42;147164.50;5072698;28;20029;-68
2023/01/28 11:07:00;;;;;;;13.18;9.32;;;;;;;-0.62;74.20;147175.91;5063957;28;20024;-69
2023/01/28 11:09:35;;;;;;;12.75;10.07;;;;;;;-0.59;73.95;147183.53;5067128;28;20032;-69
2023/01/28 11:12:33;;;;;;;11.15;9.75;;;;;;;-0.62;73.86;147174.66;5049117;28;20032;-70
2023/01/28 11:15:01;;;;;;;14.93;9.95;;;;;;;-0.75;74.28;147142.91;5030252;28;20041;-69
2023/01/28 11:17:32;;;;;;;13.13;9.35;;;;;;;-0.66;74.13;147165.75;5045801;28;20029;-68
2023/01/28 11:20:08;;;;;;;15.00;9.93;;;;;;;-0.63;74.22;147173.34;5078860;28;20044;-68
2023/01/28 11:22:43;;;;;;;15.75;11.50;;;;;;;-0.96;75.04;147092.06;5083615;28;20032;-69
2023/01/28 11:25:27;;;;;;;16.20;11.95;;;;;;;-1.33;75.59;147000.59;5065168;28;20035;-69
2023/01/28 11:27:54;;;;;;;17.67;11.07;;;;;;;-1.22;76.11;147028.56;5076749;28;20082;-68
2023/01/28 11:30:35;;;;;;;27.20;17.30;;;;;;;-1.17;75.89;147038.72;5064149;28;20092;-69
2023/01/28 11:33:22;;;;;;;18.73;12.35;;;;;;;-0.96;76.68;147090.78;5083509;28;20033;-69
2023/01/28 11:36:04;;;;;;;17.73;11.93;;;;;;;-0.92;76.80;147102.22;5043632;28;20294;-69
2023/01/28 11:38:29;;;;;;;16.73;12.93;;;;;;;-0.86;77.12;147116.19;5043578;28;20037;-69
2023/01/28 11:40:57;;;;;;;16.05;11.65;;;;;;;-0.85;75.97;147118.75;5073283;28;20032;-68
2023/01/28 11:43:25;;;;;;;15.52;11.10;;;;;;;-0.66;76.06;147165.75;5071751;28;20217;-69
2023/01/28 11:46:09;;;;;;;17.65;11.43;;;;;;;-0.99;74.96;147084.44;5070097;28;20048;-68
2023/01/28 11:48:49;;;;;;;18.10;12.43;;;;;;;-1.07;76.13;147064.09;5079015;28;20039;-68
2023/01/28 11:51:42;;;;;;;18.35;12.68;;;;;;;-1.25;76.09;147020.94;5064744;28;20029;-69
2023/01/28 11:54:27;;;;;;;19.13;12.77;;;;;;;-1.09;77.12;147059.03;5082762;28;20093;-68
2023/01/28 11:57:28;;;;;;;18.67;12.63;;;;;;;-1.04;76.44;147071.75;5062852;28;20100;-67
2023/01/28 12:00:19;;;;;;;19.42;13.18;;;;;;;-1.27;77.11;147015.88;5042508;28;20032;-69